createdAt,value
2023-09-04T00:02:06.694Z,99.90
2023-09-04T00:04:35.356Z,99.90
2023-09-04T00:07:04.145Z,99.90
2023-09-04T00:09:32.708Z,99.90
2023-09-04T00:12:00.945Z,99.90
2023-09-04T00:14:29.496Z,99.90
2023-09-04T00:16:59.073Z,99.90
2023-09-04T00:19:27.690Z,99.90
2023-09-04T00:21:55.914Z,99.90
2023-09-04T00:24:25.152Z,99.90
2023-09-04T00:26:53.424Z,99.90
2023-09-04T00:29:21.995Z,99.90
2023-09-04T00:31:50.350Z,99.90
2023-09-04T00:34:20.518Z,99.90
2023-09-04T00:36:48.900Z,99.90
2023-09-04T00:39:19.163Z,99.90
2023-09-04T00:41:48.042Z,99.90
2023-09-04T00:44:16.541Z,99.90
2023-09-04T00:46:45.620Z,99.90
2023-09-04T00:49:15.171Z,99.90
2023-09-04T00:51:45.228Z,99.90
2023-09-04T00:54:15.834Z,99.90
2023-09-04T00:56:44.713Z,99.90
2023-09-04T00:59:13.412Z,99.90
2023-09-04T01:01:42.189Z,99.90
2023-09-04T01:04:10.697Z,99.90
2023-09-04T01:06:39.435Z,99.90
2023-09-04T01:09:10.271Z,99.90
2023-09-04T01:11:44.697Z,99.90
2023-09-04T01:14:17.512Z,99.90
2023-09-04T01:16:46.926Z,99.90
2023-09-04T01:19:17.987Z,99.90
2023-09-04T01:21:47.659Z,99.90
2023-09-04T01:24:16.411Z,99.90
2023-09-04T01:26:51.411Z,99.90
2023-09-04T01:29:26.645Z,99.90
2023-09-04T01:32:01.245Z,99.90
2023-09-04T01:34:33.426Z,99.90
2023-09-04T01:37:03.497Z,99.90
2023-09-04T01:39:32.842Z,99.90
2023-09-04T01:42:01.133Z,99.90
2023-09-04T01:44:29.859Z,99.90
2023-09-04T01:46:58.193Z,99.90
2023-09-04T01:49:26.749Z,99.90
2023-09-04T01:51:55.127Z,99.90
2023-09-04T01:54:25.227Z,99.90
2023-09-04T01:56:53.540Z,99.90
2023-09-04T01:59:22.240Z,99.90
2023-09-04T02:01:51.791Z,99.90
2023-09-04T02:04:20.400Z,99.90
2023-09-04T02:06:48.601Z,99.90
2023-09-04T02:09:17.135Z,99.90
2023-09-04T02:11:46.989Z,99.90
2023-09-04T02:14:15.524Z,99.90
2023-09-04T02:16:43.735Z,99.90
2023-09-04T02:19:12.309Z,99.90
2023-09-04T02:21:40.582Z,99.90
2023-09-04T02:24:09.200Z,99.90
2023-09-04T02:26:38.499Z,99.90
2023-09-04T02:29:08.445Z,99.90
2023-09-04T02:31:36.826Z,99.90
2023-09-04T02:34:05.411Z,99.90
2023-09-04T02:36:33.750Z,99.90
2023-09-04T02:39:02.226Z,99.90
2023-09-04T02:41:30.449Z,99.90
2023-09-04T02:43:58.934Z,99.90
2023-09-04T02:46:33.175Z,99.90
2023-09-04T02:49:01.754Z,99.90
2023-09-04T02:51:30.028Z,99.90
2023-09-04T02:53:58.522Z,99.90
2023-09-04T02:56:26.823Z,99.90
2023-09-04T02:58:55.636Z,99.90
2023-09-04T03:01:24.068Z,99.90
2023-09-04T03:03:53.985Z,99.90
2023-09-04T03:06:22.296Z,99.90
2023-09-04T03:08:51.759Z,99.90
2023-09-04T03:11:20.881Z,99.90
2023-09-04T03:13:49.400Z,99.90
2023-09-04T03:16:17.646Z,99.90
2023-09-04T03:18:46.140Z,99.90
2023-09-04T03:21:16.126Z,99.90
2023-09-04T03:23:45.080Z,99.90
2023-09-04T03:26:13.292Z,99.90
2023-09-04T03:28:41.824Z,99.90
2023-09-04T03:31:15.067Z,99.90
2023-09-04T03:33:43.887Z,99.90
2023-09-04T03:36:12.385Z,99.90
2023-09-04T03:38:42.629Z,99.90
2023-09-04T03:41:11.176Z,99.90
2023-09-04T03:43:39.918Z,99.90
2023-09-04T03:46:14.274Z,99.90
2023-09-04T03:48:42.915Z,99.90
2023-09-04T03:51:11.418Z,99.90
2023-09-04T03:53:40.124Z,99.90
2023-09-04T03:56:11.820Z,99.90
2023-09-04T03:58:40.219Z,99.90
2023-09-04T04:01:09.149Z,99.90
2023-09-04T04:03:37.566Z,99.90
2023-09-04T04:06:13.226Z,99.90
2023-09-04T04:08:41.769Z,99.90
2023-09-04T04:11:12.408Z,99.90
2023-09-04T04:13:41.243Z,99.90
2023-09-04T04:16:10.387Z,99.90
2023-09-04T04:18:38.735Z,99.90
2023-09-04T04:21:07.361Z,99.90
2023-09-04T04:23:36.338Z,99.90
2023-09-04T04:26:05.192Z,99.90
2023-09-04T04:28:34.810Z,99.90
2023-09-04T04:31:04.114Z,99.90
2023-09-04T04:33:32.377Z,99.90
2023-09-04T04:36:01.782Z,99.90
2023-09-04T04:38:30.245Z,99.90
2023-09-04T04:40:58.930Z,99.90
2023-09-04T04:43:27.381Z,99.90
2023-09-04T04:45:58.440Z,99.90
2023-09-04T04:48:27.030Z,99.90
2023-09-04T04:50:57.032Z,99.90
2023-09-04T04:53:25.743Z,99.90
2023-09-04T04:55:54.381Z,99.90
2023-09-04T04:58:22.960Z,99.90
2023-09-04T05:00:51.698Z,99.90
2023-09-04T05:03:21.368Z,99.90
2023-09-04T05:05:50.266Z,99.90
2023-09-04T05:08:18.736Z,99.90
2023-09-04T05:10:47.841Z,99.90
2023-09-04T05:13:16.150Z,99.90
2023-09-04T05:15:45.358Z,99.90
2023-09-04T05:18:13.655Z,99.90
2023-09-04T05:20:43.510Z,99.90
2023-09-04T05:23:11.800Z,99.90
2023-09-04T05:25:48.819Z,99.90
2023-09-04T05:28:17.492Z,99.90
2023-09-04T05:30:46.516Z,99.90
2023-09-04T05:33:14.941Z,99.90
2023-09-04T05:35:45.137Z,99.90
2023-09-04T05:38:13.472Z,99.90
2023-09-04T05:40:42.204Z,99.90
2023-09-04T05:43:10.730Z,99.90
2023-09-04T05:45:40.311Z,99.90
2023-09-04T05:48:08.803Z,99.90
2023-09-04T05:50:37.991Z,99.90
2023-09-04T05:53:07.692Z,99.90
2023-09-04T05:55:37.927Z,99.90
2023-09-04T05:58:06.426Z,99.90
2023-09-04T06:00:35.209Z,99.90
2023-09-04T06:03:03.642Z,99.90
2023-09-04T06:05:33.143Z,99.90
2023-09-04T06:08:01.599Z,99.90
2023-09-04T06:10:31.910Z,99.90
2023-09-04T06:13:00.337Z,99.90
2023-09-04T06:15:28.874Z,99.90
2023-09-04T06:17:57.333Z,99.90
2023-09-04T06:20:26.123Z,99.90
2023-09-04T06:22:54.718Z,99.90
2023-09-04T06:25:23.443Z,99.90
2023-09-04T06:27:53.095Z,99.90
2023-09-04T06:30:22.035Z,99.90
2023-09-04T06:32:50.318Z,99.90
2023-09-04T06:35:19.233Z,99.90
2023-09-04T06:37:47.572Z,99.90
2023-09-04T06:40:16.344Z,99.90
2023-09-04T06:42:44.700Z,99.90
2023-09-04T06:45:14.948Z,99.90
2023-09-04T06:47:43.757Z,99.90
2023-09-04T06:50:12.649Z,99.90
2023-09-04T06:52:40.922Z,99.90
2023-09-04T06:55:13.032Z,99.90
2023-09-04T06:57:41.317Z,99.90
2023-09-04T07:00:12.170Z,99.90
2023-09-04T07:02:42.326Z,99.90
2023-09-04T07:05:11.083Z,99.90
2023-09-04T07:07:39.429Z,99.90
2023-09-04T07:10:09.259Z,99.90
2023-09-04T07:12:38.271Z,99.90
2023-09-04T07:15:08.008Z,99.90
2023-09-04T07:17:36.381Z,99.90
2023-09-04T07:20:07.670Z,99.90
2023-09-04T07:22:35.981Z,99.90
2023-09-04T07:25:05.270Z,99.90
2023-09-04T07:27:33.488Z,99.90
2023-09-04T07:30:02.011Z,99.90
2023-09-04T07:32:30.529Z,99.90
2023-09-04T07:34:59.126Z,99.90
2023-09-04T07:37:29.129Z,99.90
2023-09-04T07:39:57.913Z,99.90
2023-09-04T07:42:26.667Z,99.90
2023-09-04T07:44:55.357Z,99.90
2023-09-04T07:47:23.891Z,99.90
2023-09-04T07:49:53.889Z,99.90
2023-09-04T07:52:23.022Z,99.90
2023-09-04T07:54:52.978Z,99.90
2023-09-04T07:57:21.480Z,99.90
2023-09-04T07:59:51.056Z,99.90
2023-09-04T08:02:19.468Z,99.90
2023-09-04T08:04:48.049Z,99.90
2023-09-04T08:07:16.467Z,99.90
2023-09-04T08:09:45.110Z,99.90
2023-09-04T08:12:14.756Z,99.90
2023-09-04T08:14:47.469Z,99.90
2023-09-04T08:17:16.247Z,99.90
2023-09-04T08:19:45.141Z,99.90
2023-09-04T08:22:13.607Z,99.90
2023-09-04T08:24:42.523Z,99.90
2023-09-04T08:27:10.909Z,99.90
2023-09-04T08:29:41.045Z,99.90
2023-09-04T08:32:09.507Z,99.90
2023-09-04T08:34:38.088Z,99.90
2023-09-04T08:37:06.396Z,99.90
2023-09-04T08:39:34.972Z,99.90
2023-09-04T08:42:08.556Z,99.90
2023-09-04T08:44:38.594Z,99.90
2023-09-04T08:47:11.034Z,99.90
2023-09-04T08:49:39.986Z,99.90
2023-09-04T08:52:08.398Z,99.90
2023-09-04T08:54:37.299Z,99.90
2023-09-04T08:57:06.150Z,99.90
2023-09-04T08:59:37.856Z,99.90
2023-09-04T09:02:09.978Z,99.90
2023-09-04T09:04:39.122Z,99.90
2023-09-04T09:07:08.097Z,99.60
2023-09-04T09:09:40.134Z,99.10
2023-09-04T09:12:08.736Z,98.20
2023-09-04T09:14:37.333Z,97.40
2023-09-04T09:17:08.162Z,97.30
2023-09-04T09:19:37.984Z,97.30
2023-09-04T09:22:14.121Z,96.50
2023-09-04T09:24:53.589Z,96.20
2023-09-04T09:27:25.714Z,95.80
2023-09-04T09:29:58.396Z,95.70
2023-09-04T09:32:30.604Z,95.20
2023-09-04T09:35:01.493Z,95.00
2023-09-04T09:37:33.149Z,95.00
2023-09-04T09:40:02.011Z,94.70
2023-09-04T09:42:32.081Z,94.50
2023-09-04T09:45:00.897Z,94.30
2023-09-04T09:47:30.715Z,94.10
2023-09-04T09:50:00.663Z,93.60
2023-09-04T09:52:29.658Z,93.80
2023-09-04T09:54:58.408Z,93.50
2023-09-04T09:57:28.880Z,93.60
2023-09-04T09:59:58.112Z,93.70
2023-09-04T10:02:28.516Z,93.40
2023-09-04T10:04:58.534Z,93.20
2023-09-04T10:07:29.598Z,92.90
2023-09-04T10:10:04.309Z,92.30
2023-09-04T10:12:36.839Z,91.90
2023-09-04T10:15:08.734Z,92.00
2023-09-04T10:17:42.712Z,92.20
2023-09-04T10:20:14.648Z,92.30
2023-09-04T10:22:48.821Z,92.60
2023-09-04T10:25:27.886Z,92.90
2023-09-04T10:28:05.068Z,92.80
2023-09-04T10:30:38.379Z,92.60
2023-09-04T10:33:07.852Z,93.00
2023-09-04T10:35:39.008Z,93.50
2023-09-04T10:38:09.367Z,93.40
2023-09-04T10:40:39.989Z,93.00
2023-09-04T10:43:10.850Z,92.90
2023-09-04T10:45:39.757Z,92.80
2023-09-04T10:48:08.450Z,92.90
2023-09-04T10:50:39.787Z,92.80
2023-09-04T10:53:09.734Z,92.60
2023-09-04T10:55:39.881Z,92.50
2023-09-04T10:58:09.559Z,92.40
2023-09-04T11:00:39.069Z,92.30
2023-09-04T11:03:21.418Z,92.10
2023-09-04T11:06:13.043Z,91.90
2023-09-04T11:08:52.031Z,91.70
2023-09-04T11:11:25.364Z,91.80
2023-09-04T11:14:04.885Z,91.90
2023-09-04T11:16:39.617Z,92.20
2023-09-04T11:19:10.866Z,92.30
2023-09-04T11:21:44.177Z,91.60
2023-09-04T11:24:12.712Z,91.60
2023-09-04T11:26:41.434Z,91.50
2023-09-04T11:29:09.976Z,91.50
2023-09-04T11:31:40.000Z,91.20
2023-09-04T11:34:08.508Z,90.70
2023-09-04T11:36:41.841Z,90.60
2023-09-04T11:39:11.653Z,90.80
2023-09-04T11:41:40.939Z,90.80
2023-09-04T11:44:09.901Z,90.90
2023-09-04T11:46:38.553Z,91.00
2023-09-04T11:49:07.125Z,90.50
2023-09-04T11:51:37.887Z,90.50
2023-09-04T11:54:08.674Z,90.60
2023-09-04T11:56:39.063Z,90.60
2023-09-04T11:59:07.443Z,90.50
2023-09-04T12:01:37.344Z,90.50
2023-09-04T12:04:06.294Z,90.50
2023-09-04T12:06:38.202Z,90.60
2023-09-04T12:09:08.831Z,90.90
2023-09-04T12:11:37.876Z,91.10
2023-09-04T12:14:10.786Z,91.20
2023-09-04T12:16:40.908Z,91.20
2023-09-04T12:19:09.268Z,91.30
2023-09-04T12:21:37.794Z,91.30
2023-09-04T12:24:15.205Z,91.50
2023-09-04T12:26:44.374Z,91.60
2023-09-04T12:29:13.174Z,91.60
2023-09-04T12:31:44.090Z,91.70
2023-09-04T12:34:12.723Z,92.00
2023-09-04T12:36:41.393Z,92.20
2023-09-04T12:39:09.785Z,92.60
2023-09-04T12:41:40.546Z,92.10
2023-09-04T12:44:08.696Z,92.00
2023-09-04T12:46:37.260Z,92.00
2023-09-04T12:49:05.542Z,92.20
2023-09-04T12:51:34.141Z,92.40
2023-09-04T12:54:02.608Z,92.10
2023-09-04T12:56:31.497Z,91.90
2023-09-04T12:59:01.307Z,92.00
2023-09-04T13:01:30.244Z,92.20
2023-09-04T13:03:58.601Z,92.50
2023-09-04T13:06:27.161Z,92.10
2023-09-04T13:08:55.369Z,92.10
2023-09-04T13:11:24.137Z,92.00
2023-09-04T13:13:52.492Z,92.20
2023-09-04T13:16:24.606Z,92.00
2023-09-04T13:18:53.232Z,92.00
2023-09-04T13:21:21.845Z,91.90
2023-09-04T13:23:50.392Z,91.80
2023-09-04T13:26:21.073Z,92.00
2023-09-04T13:28:49.333Z,92.00
2023-09-04T13:31:20.109Z,91.60
2023-09-04T13:33:50.027Z,91.50
2023-09-04T13:36:18.695Z,91.70
2023-09-04T13:38:47.161Z,91.80
2023-09-04T13:41:15.898Z,92.00
2023-09-04T13:43:44.365Z,92.10
2023-09-04T13:46:13.543Z,92.20
2023-09-04T13:48:42.039Z,92.40
2023-09-04T13:51:12.078Z,92.60
2023-09-04T13:53:41.616Z,92.70
2023-09-04T13:56:10.529Z,92.80
2023-09-04T13:58:38.974Z,92.90
2023-09-04T14:01:07.682Z,93.00
2023-09-04T14:03:35.967Z,93.60
2023-09-04T14:06:04.516Z,93.20
2023-09-04T14:08:34.260Z,93.20
2023-09-04T14:11:02.888Z,93.30
2023-09-04T14:13:32.023Z,93.10
2023-09-04T14:16:03.731Z,93.00
2023-09-04T14:18:32.235Z,93.00
2023-09-04T14:21:02.479Z,93.00
2023-09-04T14:23:30.863Z,92.90
2023-09-04T14:26:00.789Z,93.30
2023-09-04T14:28:29.058Z,93.40
2023-09-04T14:30:57.871Z,93.50
2023-09-04T14:33:27.789Z,93.30
2023-09-04T14:36:00.118Z,93.10
2023-09-04T14:38:29.242Z,92.80
2023-09-04T14:41:09.998Z,92.50
2023-09-04T14:43:38.378Z,92.10
2023-09-04T14:46:10.693Z,91.90
2023-09-04T14:48:39.302Z,91.80
2023-09-04T14:51:08.213Z,92.00
2023-09-04T14:53:40.706Z,91.90
2023-09-04T14:56:10.739Z,92.00
2023-09-04T14:58:39.324Z,92.10
2023-09-04T15:01:14.980Z,92.40
2023-09-04T15:03:44.125Z,92.80
2023-09-04T15:06:13.232Z,92.80
2023-09-04T15:08:42.114Z,92.70
2023-09-04T15:11:15.323Z,92.70
2023-09-04T15:13:44.566Z,92.80
2023-09-04T15:16:13.319Z,93.20
2023-09-04T15:18:43.328Z,93.70
2023-09-04T15:21:12.419Z,94.00
2023-09-04T15:23:40.889Z,94.20
2023-09-04T15:26:11.088Z,94.40
2023-09-04T15:28:39.378Z,94.60
2023-09-04T15:31:08.126Z,94.60
2023-09-04T15:33:36.867Z,94.70
2023-09-04T15:36:06.432Z,94.80
2023-09-04T15:38:57.760Z,94.90
2023-09-04T15:41:28.057Z,95.10
2023-09-04T15:43:57.398Z,95.30
2023-09-04T15:46:26.245Z,95.30
2023-09-04T15:48:54.800Z,95.40
2023-09-04T15:51:24.093Z,95.40
2023-09-04T15:53:52.595Z,95.50
2023-09-04T15:56:21.397Z,95.60
2023-09-04T15:58:51.239Z,95.50
2023-09-04T16:01:19.939Z,95.50
2023-09-04T16:03:48.476Z,95.70
2023-09-04T16:06:17.262Z,95.80
2023-09-04T16:08:45.610Z,95.90
2023-09-04T16:11:14.731Z,96.10
2023-09-04T16:13:43.172Z,96.20
2023-09-04T16:16:13.418Z,96.40
2023-09-04T16:18:41.676Z,96.50
2023-09-04T16:21:10.462Z,96.60
2023-09-04T16:23:38.661Z,96.80
2023-09-04T16:26:08.762Z,96.80
2023-09-04T16:28:37.125Z,96.90
2023-09-04T16:31:05.730Z,97.10
2023-09-04T16:33:35.423Z,97.20
2023-09-04T16:36:04.328Z,97.20
2023-09-04T16:38:34.320Z,97.20
2023-09-04T16:41:04.679Z,97.20
2023-09-04T16:43:32.946Z,97.30
2023-09-04T16:46:01.585Z,97.30
2023-09-04T16:48:30.004Z,97.50
2023-09-04T16:51:00.325Z,97.60
2023-09-04T16:53:28.827Z,97.80
2023-09-04T16:55:58.417Z,97.90
2023-09-04T16:58:27.225Z,98.10
2023-09-04T17:00:56.675Z,98.20
2023-09-04T17:03:25.664Z,98.30
2023-09-04T17:05:54.643Z,98.40
2023-09-04T17:08:24.814Z,98.50
2023-09-04T17:10:54.324Z,98.60
2023-09-04T17:13:22.762Z,98.90
2023-09-04T17:15:51.987Z,99.10
2023-09-04T17:18:20.696Z,99.30
2023-09-04T17:20:49.377Z,99.50
2023-09-04T17:23:17.803Z,99.60
2023-09-04T17:25:47.794Z,99.70
2023-09-04T17:28:16.314Z,99.90
2023-09-04T17:30:45.115Z,99.90
2023-09-04T17:33:13.546Z,99.90
2023-09-04T17:35:44.215Z,99.90
2023-09-04T17:38:12.642Z,99.90
2023-09-04T17:40:41.684Z,99.90
2023-09-04T17:43:12.072Z,99.90
2023-09-04T17:45:48.994Z,99.90
2023-09-04T17:48:17.633Z,99.90
2023-09-04T17:50:46.001Z,99.90
2023-09-04T17:53:14.564Z,99.90
2023-09-04T17:55:43.814Z,99.90
2023-09-04T17:58:13.834Z,99.90
2023-09-04T18:00:42.208Z,99.90
2023-09-04T18:03:11.385Z,99.90
2023-09-04T18:05:40.382Z,99.90
2023-09-04T18:08:09.708Z,99.90
2023-09-04T18:10:39.982Z,99.90
2023-09-04T18:13:08.578Z,99.90
2023-09-04T18:15:38.555Z,99.90
2023-09-04T18:18:07.289Z,99.90
2023-09-04T18:20:35.524Z,99.90
2023-09-04T18:23:04.677Z,99.90
2023-09-04T18:25:32.865Z,99.90
2023-09-04T18:28:02.368Z,99.90
2023-09-04T18:30:30.805Z,99.90
2023-09-04T18:33:00.804Z,99.90
2023-09-04T18:35:29.411Z,99.90
2023-09-04T18:37:58.390Z,99.90
2023-09-04T18:40:26.764Z,99.90
2023-09-04T18:42:55.289Z,99.90
2023-09-04T18:45:23.668Z,99.90
2023-09-04T18:47:52.269Z,99.90
2023-09-04T18:50:21.957Z,99.90
2023-09-04T18:52:50.460Z,99.90
2023-09-04T18:55:21.460Z,99.90
2023-09-04T18:57:50.198Z,99.90
2023-09-04T19:00:19.171Z,99.90
2023-09-04T19:02:48.014Z,99.90
2023-09-04T19:05:16.485Z,99.90
2023-09-04T19:07:46.351Z,99.90
2023-09-04T19:10:14.717Z,99.90
2023-09-04T19:12:43.296Z,99.90
2023-09-04T19:15:12.241Z,99.90
2023-09-04T19:17:40.801Z,99.90
2023-09-04T19:20:11.766Z,99.90
2023-09-04T19:22:40.595Z,99.90
2023-09-04T19:25:12.571Z,99.90
2023-09-04T19:27:41.452Z,99.90
2023-09-04T19:30:11.062Z,99.90
2023-09-04T19:32:39.757Z,99.90
2023-09-04T19:35:09.908Z,99.90
2023-09-04T19:37:38.632Z,99.90
2023-09-04T19:40:09.384Z,99.90
2023-09-04T19:42:39.322Z,99.90
2023-09-04T19:45:09.089Z,99.90
2023-09-04T19:47:37.761Z,99.90
2023-09-04T19:50:08.985Z,99.90
2023-09-04T19:52:37.577Z,99.90
2023-09-04T19:55:07.157Z,99.90
2023-09-04T19:57:37.516Z,99.90
2023-09-04T20:00:09.039Z,99.90
2023-09-04T20:02:38.433Z,99.90
2023-09-04T20:05:07.196Z,99.90
2023-09-04T20:07:35.773Z,99.90
2023-09-04T20:10:04.218Z,99.90
2023-09-04T20:12:32.738Z,99.90
2023-09-04T20:15:00.961Z,99.90
2023-09-04T20:17:30.886Z,99.90
2023-09-04T20:19:59.276Z,99.90
2023-09-04T20:22:28.308Z,99.90
2023-09-04T20:24:56.769Z,99.90
2023-09-04T20:27:25.421Z,99.90
2023-09-04T20:29:53.725Z,99.90
2023-09-04T20:32:22.821Z,99.90
2023-09-04T20:34:52.459Z,99.90
2023-09-04T20:37:21.188Z,99.90
2023-09-04T20:39:50.232Z,99.90
2023-09-04T20:42:18.830Z,99.90
2023-09-04T20:44:47.303Z,99.90
2023-09-04T20:47:15.830Z,99.90
2023-09-04T20:49:44.237Z,99.90
2023-09-04T20:52:14.175Z,99.90
2023-09-04T20:54:42.454Z,99.90
2023-09-04T20:57:11.036Z,99.90
2023-09-04T20:59:39.316Z,99.90
2023-09-04T21:02:08.703Z,99.90
2023-09-04T21:04:37.032Z,99.90
2023-09-04T21:07:10.946Z,99.90
2023-09-04T21:09:39.507Z,99.90
2023-09-04T21:12:25.923Z,99.90
2023-09-04T21:15:11.886Z,99.90
2023-09-04T21:17:58.252Z,99.90
2023-09-04T21:20:43.902Z,99.90
2023-09-04T21:23:30.103Z,99.90
2023-09-04T21:26:16.976Z,99.90
2023-09-04T21:29:03.172Z,99.90
2023-09-04T21:31:49.048Z,99.90
2023-09-04T21:34:35.308Z,99.90
2023-09-04T21:37:20.940Z,99.90
2023-09-04T21:40:06.859Z,99.90
2023-09-04T21:42:54.052Z,99.90
2023-09-04T21:45:40.203Z,99.90
2023-09-04T21:48:26.972Z,99.90
2023-09-04T21:51:13.277Z,99.90
2023-09-04T21:53:58.946Z,99.90
2023-09-04T21:56:45.071Z,99.90
2023-09-04T21:59:32.476Z,99.90
2023-09-04T22:02:18.431Z,99.90
2023-09-04T22:05:04.030Z,99.90
2023-09-04T22:07:50.076Z,99.90
2023-09-04T22:10:37.113Z,99.90
2023-09-04T22:13:23.839Z,99.90
2023-09-04T22:16:11.031Z,99.90
2023-09-04T22:18:56.962Z,99.90
2023-09-04T22:21:42.578Z,99.90
2023-09-04T22:24:28.916Z,99.90
2023-09-04T22:27:16.993Z,99.90
2023-09-04T22:30:03.219Z,99.90
2023-09-04T22:32:50.770Z,99.90
2023-09-04T22:35:37.053Z,99.90
2023-09-04T22:38:27.696Z,99.90
2023-09-04T22:41:13.930Z,99.90
2023-09-04T22:43:59.916Z,99.90
2023-09-04T22:46:46.141Z,99.90
2023-09-04T22:49:33.177Z,99.90
2023-09-04T22:52:19.454Z,99.90
2023-09-04T22:55:05.376Z,99.90
2023-09-04T22:57:51.288Z,99.90
2023-09-04T23:00:37.300Z,99.90
2023-09-04T23:03:25.188Z,99.90
2023-09-04T23:06:12.688Z,99.90
2023-09-04T23:08:58.881Z,99.90
2023-09-04T23:11:44.636Z,99.90
2023-09-04T23:14:30.867Z,99.90
2023-09-04T23:17:17.033Z,99.90
2023-09-04T23:20:03.159Z,99.90
2023-09-04T23:22:32.774Z,99.90
2023-09-04T23:25:01.234Z,99.90
2023-09-04T23:27:30.388Z,99.90
2023-09-04T23:29:59.143Z,99.90
2023-09-04T23:32:42.373Z,99.90
2023-09-04T23:35:28.578Z,99.90
2023-09-04T23:38:07.759Z,99.90
2023-09-04T23:40:53.994Z,99.90
2023-09-04T23:43:47.989Z,99.90
2023-09-04T23:46:16.555Z,99.90
2023-09-04T23:48:45.525Z,99.90
2023-09-04T23:51:14.099Z,99.90
2023-09-04T23:53:43.663Z,99.90
2023-09-04T23:56:12.273Z,99.90
2023-09-04T23:58:45.186Z,99.90
